sensor_id;sensor_type;location;lat;lon;timestamp;pressure;altitude;pressure_sealevel;temperature;humidity
10978;BME280;5542;48.272;10.794;2023-02-23T00:02:04;95374.47;;;6.52;77.28
10978;BME280;5542;48.272;10.794;2023-02-23T00:04:32;95368.81;;;6.55;77.59
10978;BME280;5542;48.272;10.794;2023-02-23T00:06:58;95372.19;;;6.62;78.01
10978;BME280;5542;48.272;10.794;2023-02-23T00:09:25;95371.97;;;6.63;78.08
10978;BME280;5542;48.272;10.794;2023-02-23T00:12:00;95377.00;;;6.65;78.08
10978;BME280;5542;48.272;10.794;2023-02-23T00:14:34;95372.19;;;6.62;78.27
10978;BME280;5542;48.272;10.794;2023-02-23T00:17:01;95368.94;;;6.66;78.38
10978;BME280;5542;48.272;10.794;2023-02-23T00:19:28;95364.94;;;6.64;78.30
10978;BME280;5542;48.272;10.794;2023-02-23T00:21:57;95366.56;;;6.65;78.55
10978;BME280;5542;48.272;10.794;2023-02-23T00:24:24;95372.78;;;6.64;78.70
10978;BME280;5542;48.272;10.794;2023-02-23T00:26:51;95368.16;;;6.66;78.59
10978;BME280;5542;48.272;10.794;2023-02-23T00:29:19;95370.75;;;6.66;78.56
10978;BME280;5542;48.272;10.794;2023-02-23T00:31:48;95369.31;;;6.70;78.69
10978;BME280;5542;48.272;10.794;2023-02-23T00:34:18;95367.28;;;6.72;79.08
10978;BME280;5542;48.272;10.794;2023-02-23T00:36:47;95374.16;;;6.66;79.64
10978;BME280;5542;48.272;10.794;2023-02-23T00:39:14;95370.59;;;6.61;80.37
10978;BME280;5542;48.272;10.794;2023-02-23T00:41:46;95367.97;;;6.61;80.46
10978;BME280;5542;48.272;10.794;2023-02-23T00:44:13;95381.84;;;6.61;80.73
10978;BME280;5542;48.272;10.794;2023-02-23T00:46:40;95368.34;;;6.64;80.64
10978;BME280;5542;48.272;10.794;2023-02-23T00:49:10;95376.56;;;6.68;80.48
10978;BME280;5542;48.272;10.794;2023-02-23T00:51:37;95367.34;;;6.65;80.45
10978;BME280;5542;48.272;10.794;2023-02-23T00:54:05;95374.09;;;6.73;79.91
10978;BME280;5542;48.272;10.794;2023-02-23T00:56:31;95374.09;;;6.73;79.77
10978;BME280;5542;48.272;10.794;2023-02-23T00:58:58;95374.50;;;6.77;79.62
10978;BME280;5542;48.272;10.794;2023-02-23T01:01:25;95373.28;;;6.79;79.31
10978;BME280;5542;48.272;10.794;2023-02-23T01:03:52;95367.91;;;6.74;79.68
10978;BME280;5542;48.272;10.794;2023-02-23T01:06:20;95373.31;;;6.73;79.92
10978;BME280;5542;48.272;10.794;2023-02-23T01:08:49;95368.53;;;6.70;80.04
10978;BME280;5542;48.272;10.794;2023-02-23T01:11:18;95377.75;;;6.72;79.89
10978;BME280;5542;48.272;10.794;2023-02-23T01:13:46;95373.31;;;6.73;79.65
10978;BME280;5542;48.272;10.794;2023-02-23T01:16:16;95375.72;;;6.74;79.29
10978;BME280;5542;48.272;10.794;2023-02-23T01:18:44;95371.50;;;6.73;79.09
10978;BME280;5542;48.272;10.794;2023-02-23T01:21:14;95376.16;;;6.71;79.00
10978;BME280;5542;48.272;10.794;2023-02-23T01:23:42;95367.91;;;6.74;78.89
10978;BME280;5542;48.272;10.794;2023-02-23T01:26:14;95376.53;;;6.75;78.67
10978;BME280;5542;48.272;10.794;2023-02-23T01:28:41;95368.88;;;6.73;78.63
10978;BME280;5542;48.272;10.794;2023-02-23T01:31:08;95373.31;;;6.73;78.54
10978;BME280;5542;48.272;10.794;2023-02-23T01:33:34;95370.69;;;6.73;78.67
10978;BME280;5542;48.272;10.794;2023-02-23T01:36:01;95368.09;;;6.73;78.51
10978;BME280;5542;48.272;10.794;2023-02-23T01:38:28;95364.91;;;6.71;78.58
10978;BME280;5542;48.272;10.794;2023-02-23T01:40:56;95356.25;;;6.70;78.29
10978;BME280;5542;48.272;10.794;2023-02-23T01:43:22;95356.03;;;6.72;78.43
10978;BME280;5542;48.272;10.794;2023-02-23T01:45:54;95354.00;;;6.74;77.68
10978;BME280;5542;48.272;10.794;2023-02-23T01:48:25;95354.81;;;6.74;77.73
10978;BME280;5542;48.272;10.794;2023-02-23T01:50:55;95349.22;;;6.71;77.92
10978;BME280;5542;48.272;10.794;2023-02-23T01:53:23;95349.22;;;6.71;77.86
10978;BME280;5542;48.272;10.794;2023-02-23T01:55:54;95349.41;;;6.69;78.02
10978;BME280;5542;48.272;10.794;2023-02-23T01:58:25;95346.38;;;6.72;78.04
10978;BME280;5542;48.272;10.794;2023-02-23T02:00:55;95343.59;;;6.67;78.14
10978;BME280;5542;48.272;10.794;2023-02-23T02:03:26;95343.59;;;6.67;77.95
10978;BME280;5542;48.272;10.794;2023-02-23T02:05:55;95347.06;;;6.61;78.17
10978;BME280;5542;48.272;10.794;2023-02-23T02:08:23;95339.44;;;6.59;78.18
10978;BME280;5542;48.272;10.794;2023-02-23T02:10:51;95340.84;;;6.62;78.31
10978;BME280;5542;48.272;10.794;2023-02-23T02:13:22;95339.25;;;6.61;78.42
10978;BME280;5542;48.272;10.794;2023-02-23T02:16:21;95344.47;;;6.61;78.61
10978;BME280;5542;48.272;10.794;2023-02-23T02:19:19;95336.47;;;6.56;78.75
10978;BME280;5542;48.272;10.794;2023-02-23T02:22:24;95334.66;;;6.56;78.78
10978;BME280;5542;48.272;10.794;2023-02-23T02:28:26;95334.84;;;6.55;79.30
10978;BME280;5542;48.272;10.794;2023-02-23T02:31:33;95334.03;;;6.54;79.68
10978;BME280;5542;48.272;10.794;2023-02-23T02:34:38;95331.44;;;6.54;80.09
10978;BME280;5542;48.272;10.794;2023-02-23T02:37:19;95329.19;;;6.58;80.12
10978;BME280;5542;48.272;10.794;2023-02-23T02:39:54;95332.41;;;6.60;80.03
10978;BME280;5542;48.272;10.794;2023-02-23T02:42:49;95323.97;;;6.58;80.06
10978;BME280;5542;48.272;10.794;2023-02-23T02:45:25;95321.97;;;6.60;80.12
10978;BME280;5542;48.272;10.794;2023-02-23T02:47:57;95324.59;;;6.60;80.11
10978;BME280;5542;48.272;10.794;2023-02-23T02:50:42;95321.13;;;6.59;80.08
10978;BME280;5542;48.272;10.794;2023-02-23T02:53:14;95317.31;;;6.62;80.16
10978;BME280;5542;48.272;10.794;2023-02-23T02:55:43;95321.53;;;6.63;80.19
10978;BME280;5542;48.272;10.794;2023-02-23T02:58:14;95318.28;;;6.67;79.83
10978;BME280;5542;48.272;10.794;2023-02-23T03:00:46;95321.25;;;6.71;80.13
10978;BME280;5542;48.272;10.794;2023-02-23T03:03:33;95320.72;;;6.62;80.89
10978;BME280;5542;48.272;10.794;2023-02-23T03:06:19;95323.41;;;6.56;81.57
10978;BME280;5542;48.272;10.794;2023-02-23T03:09:12;95322.00;;;6.53;81.82
10978;BME280;5542;48.272;10.794;2023-02-23T03:12:06;95320.78;;;6.56;81.78
10978;BME280;5542;48.272;10.794;2023-02-23T03:14:57;95325.56;;;6.59;81.38
10978;BME280;5542;48.272;10.794;2023-02-23T03:17:45;95323.75;;;6.59;81.27
10978;BME280;5542;48.272;10.794;2023-02-23T03:20:40;95326.38;;;6.59;81.64
10978;BME280;5542;48.272;10.794;2023-02-23T03:23:33;95329.59;;;6.61;81.42
10978;BME280;5542;48.272;10.794;2023-02-23T03:26:26;95332.78;;;6.63;81.33
10978;BME280;5542;48.272;10.794;2023-02-23T03:29:17;95331.56;;;6.66;81.35
10978;BME280;5542;48.272;10.794;2023-02-23T03:32:07;95324.28;;;6.68;81.01
10978;BME280;5542;48.272;10.794;2023-02-23T03:34:57;95328.94;;;6.66;81.09
10978;BME280;5542;48.272;10.794;2023-02-23T03:37:51;95330.31;;;6.68;81.00
10978;BME280;5542;48.272;10.794;2023-02-23T03:40:38;95333.53;;;6.71;81.06
10978;BME280;5542;48.272;10.794;2023-02-23T03:43:31;95338.13;;;6.75;80.83
10978;BME280;5542;48.272;10.794;2023-02-23T03:46:18;95336.31;;;6.76;80.78
10978;BME280;5542;48.272;10.794;2023-02-23T03:49:06;95330.63;;;6.79;80.81
10978;BME280;5542;48.272;10.794;2023-02-23T03:51:56;95340.91;;;6.80;81.06
10978;BME280;5542;48.272;10.794;2023-02-23T03:54:45;95335.44;;;6.82;81.09
10978;BME280;5542;48.272;10.794;2023-02-23T03:57:33;95334.44;;;6.83;81.30
10978;BME280;5542;48.272;10.794;2023-02-23T04:00:24;95342.66;;;6.86;81.38
10978;BME280;5542;48.272;10.794;2023-02-23T04:03:12;95336.63;;;6.86;81.58
10978;BME280;5542;48.272;10.794;2023-02-23T04:05:57;95340.19;;;6.91;81.56
10978;BME280;5542;48.272;10.794;2023-02-23T04:08:43;95329.72;;;6.91;81.79
10978;BME280;5542;48.272;10.794;2023-02-23T04:11:32;95337.72;;;6.97;82.19
10978;BME280;5542;48.272;10.794;2023-02-23T04:14:26;95342.75;;;6.98;82.78
10978;BME280;5542;48.272;10.794;2023-02-23T04:16:55;95336.81;;;7.09;83.46
10978;BME280;5542;48.272;10.794;2023-02-23T04:19:21;95340.47;;;7.08;84.55
10978;BME280;5542;48.272;10.794;2023-02-23T04:21:48;95339.06;;;7.06;84.83
10978;BME280;5542;48.272;10.794;2023-02-23T04:24:14;95337.03;;;7.08;85.30
10978;BME280;5542;48.272;10.794;2023-02-23T04:26:41;95338.88;;;7.26;85.58
10978;BME280;5542;48.272;10.794;2023-02-23T04:29:09;95335.31;;;7.20;86.40
10978;BME280;5542;48.272;10.794;2023-02-23T04:31:36;95334.13;;;7.16;86.81
10978;BME280;5542;48.272;10.794;2023-02-23T04:34:04;95339.00;;;7.12;87.24
10978;BME280;5542;48.272;10.794;2023-02-23T04:36:31;95333.19;;;7.10;87.45
10978;BME280;5542;48.272;10.794;2023-02-23T04:38:58;95336.31;;;7.19;87.81
10978;BME280;5542;48.272;10.794;2023-02-23T04:41:24;95336.13;;;7.39;88.05
10978;BME280;5542;48.272;10.794;2023-02-23T04:43:51;95339.63;;;7.33;88.87
10978;BME280;5542;48.272;10.794;2023-02-23T04:46:17;95334.75;;;7.36;89.11
10978;BME280;5542;48.272;10.794;2023-02-23T04:48:44;95337.38;;;7.36;89.30
10978;BME280;5542;48.272;10.794;2023-02-23T04:51:12;95334.28;;;7.39;89.76
10978;BME280;5542;48.272;10.794;2023-02-23T04:53:38;95342.16;;;7.39;90.30
10978;BME280;5542;48.272;10.794;2023-02-23T04:56:06;95342.59;;;7.36;90.66
10978;BME280;5542;48.272;10.794;2023-02-23T04:58:32;95344.75;;;7.39;90.83
10978;BME280;5542;48.272;10.794;2023-02-23T05:01:03;95343.41;;;7.37;91.15
10978;BME280;5542;48.272;10.794;2023-02-23T05:03:30;95342.16;;;7.39;91.09
10978;BME280;5542;48.272;10.794;2023-02-23T05:05:57;95337.38;;;7.36;91.42
10978;BME280;5542;48.272;10.794;2023-02-23T05:08:25;95338.22;;;7.30;91.98
10978;BME280;5542;48.272;10.794;2023-02-23T05:10:52;95343.44;;;7.30;92.00
10978;BME280;5542;48.272;10.794;2023-02-23T05:13:18;95340.25;;;7.28;92.10
10978;BME280;5542;48.272;10.794;2023-02-23T05:15:45;95340.41;;;7.52;91.96
10978;BME280;5542;48.272;10.794;2023-02-23T05:18:12;95338.31;;;7.42;92.25
10978;BME280;5542;48.272;10.794;2023-02-23T05:20:41;95340.41;;;7.33;92.58
10978;BME280;5542;48.272;10.794;2023-02-23T05:23:09;95335.63;;;7.49;91.96
10978;BME280;5542;48.272;10.794;2023-02-23T05:25:38;95336.06;;;7.46;91.87
10978;BME280;5542;48.272;10.794;2023-02-23T05:28:05;95338.50;;;7.40;92.39
10978;BME280;5542;48.272;10.794;2023-02-23T05:30:32;95332.47;;;7.40;92.62
10978;BME280;5542;48.272;10.794;2023-02-23T05:33:00;95341.19;;;7.34;92.71
10978;BME280;5542;48.272;10.794;2023-02-23T05:35:27;95340.63;;;7.32;92.72
10978;BME280;5542;48.272;10.794;2023-02-23T05:37:53;95339.47;;;7.28;92.77
10978;BME280;5542;48.272;10.794;2023-02-23T05:40:21;95342.44;;;7.31;92.35
10978;BME280;5542;48.272;10.794;2023-02-23T05:42:49;95341.28;;;7.27;92.30
10978;BME280;5542;48.272;10.794;2023-02-23T05:45:15;95340.13;;;7.23;92.55
10978;BME280;5542;48.272;10.794;2023-02-23T05:47:42;95339.47;;;7.28;92.30
10978;BME280;5542;48.272;10.794;2023-02-23T05:50:10;95345.88;;;7.32;92.07
10978;BME280;5542;48.272;10.794;2023-02-23T05:52:37;95336.25;;;7.26;92.47
10978;BME280;5542;48.272;10.794;2023-02-23T05:55:07;95344.31;;;7.24;92.59
10978;BME280;5542;48.272;10.794;2023-02-23T05:57:34;95347.50;;;7.26;92.63
10978;BME280;5542;48.272;10.794;2023-02-23T06:00:04;95348.91;;;7.29;92.61
10978;BME280;5542;48.272;10.794;2023-02-23T06:02:31;95350.88;;;7.33;92.42
10978;BME280;5542;48.272;10.794;2023-02-23T06:04:58;95350.44;;;7.36;92.54
10978;BME280;5542;48.272;10.794;2023-02-23T06:07:25;95352.03;;;7.37;92.77
10978;BME280;5542;48.272;10.794;2023-02-23T06:09:52;95352.72;;;7.51;92.76
10978;BME280;5542;48.272;10.794;2023-02-23T06:12:18;95346.97;;;7.42;93.35
10978;BME280;5542;48.272;10.794;2023-02-23T06:14:45;95353.13;;;7.48;93.86
10978;BME280;5542;48.272;10.794;2023-02-23T06:17:13;95351.75;;;7.46;93.74
10978;BME280;5542;48.272;10.794;2023-02-23T06:19:40;95353.34;;;7.47;93.90
10978;BME280;5542;48.272;10.794;2023-02-23T06:22:06;95358.50;;;7.53;93.72
10978;BME280;5542;48.272;10.794;2023-02-23T06:24:33;95361.50;;;7.57;93.73
10978;BME280;5542;48.272;10.794;2023-02-23T06:27:00;95360.69;;;7.56;93.79
10978;BME280;5542;48.272;10.794;2023-02-23T06:29:26;95355.66;;;7.55;93.99
10978;BME280;5542;48.272;10.794;2023-02-23T06:31:53;95361.72;;;7.55;94.43
10978;BME280;5542;48.272;10.794;2023-02-23T06:34:21;95364.53;;;7.54;95.00
10978;BME280;5542;48.272;10.794;2023-02-23T06:36:47;95362.53;;;7.56;95.39
10978;BME280;5542;48.272;10.794;2023-02-23T06:39:14;95371.38;;;7.55;95.72
10978;BME280;5542;48.272;10.794;2023-02-23T06:41:41;95366.31;;;7.60;95.60
10978;BME280;5542;48.272;10.794;2023-02-23T06:44:07;95373.69;;;7.63;95.93
10978;BME280;5542;48.272;10.794;2023-02-23T06:46:34;95374.88;;;7.67;95.76
10978;BME280;5542;48.272;10.794;2023-02-23T06:49:00;95377.50;;;7.67;96.24
10978;BME280;5542;48.272;10.794;2023-02-23T06:51:28;95379.88;;;7.68;96.30
10978;BME280;5542;48.272;10.794;2023-02-23T06:53:55;95380.03;;;7.74;95.87
10978;BME280;5542;48.272;10.794;2023-02-23T06:56:22;95389.69;;;7.73;96.22
10978;BME280;5542;48.272;10.794;2023-02-23T06:58:48;95386.88;;;7.75;96.28
10978;BME280;5542;48.272;10.794;2023-02-23T07:01:15;95389.28;;;7.76;96.30
10978;BME280;5542;48.272;10.794;2023-02-23T07:03:42;95393.06;;;7.80;96.13
10978;BME280;5542;48.272;10.794;2023-02-23T07:06:09;95395.69;;;7.80;96.25
10978;BME280;5542;48.272;10.794;2023-02-23T07:08:37;95396.91;;;7.78;96.56
10978;BME280;5542;48.272;10.794;2023-02-23T07:11:05;95403.53;;;7.80;96.67
10978;BME280;5542;48.272;10.794;2023-02-23T07:13:32;95401.47;;;7.82;96.92
10978;BME280;5542;48.272;10.794;2023-02-23T07:15:59;95400.03;;;7.86;97.32
10978;BME280;5542;48.272;10.794;2023-02-23T07:18:25;95406.53;;;7.84;97.12
10978;BME280;5542;48.272;10.794;2023-02-23T07:20:52;95401.06;;;7.85;97.40
10978;BME280;5542;48.272;10.794;2023-02-23T07:23:19;95399.16;;;7.92;97.37
10978;BME280;5542;48.272;10.794;2023-02-23T07:25:48;95397.34;;;7.93;96.74
10978;BME280;5542;48.272;10.794;2023-02-23T07:28:15;95405.41;;;7.91;96.95
10978;BME280;5542;48.272;10.794;2023-02-23T07:30:42;95400.91;;;7.99;97.09
10978;BME280;5542;48.272;10.794;2023-02-23T07:33:08;95395.81;;;8.04;97.04
10978;BME280;5542;48.272;10.794;2023-02-23T07:35:35;95408.81;;;8.10;97.12
10978;BME280;5542;48.272;10.794;2023-02-23T07:38:02;95391.88;;;8.13;97.15
10978;BME280;5542;48.272;10.794;2023-02-23T07:40:31;95399.72;;;8.13;97.38
10978;BME280;5542;48.272;10.794;2023-02-23T07:42:59;95395.91;;;8.27;96.25
10978;BME280;5542;48.272;10.794;2023-02-23T07:45:26;95398.03;;;8.18;96.54
10978;BME280;5542;48.272;10.794;2023-02-23T07:47:52;95400.69;;;8.30;96.44
10978;BME280;5542;48.272;10.794;2023-02-23T07:50:19;95400.28;;;8.33;95.38
10978;BME280;5542;48.272;10.794;2023-02-23T07:52:46;95396.34;;;8.24;96.18
10978;BME280;5542;48.272;10.794;2023-02-23T07:55:12;95404.50;;;8.16;97.04
10978;BME280;5542;48.272;10.794;2023-02-23T07:57:39;95405.50;;;8.33;95.45
10978;BME280;5542;48.272;10.794;2023-02-23T08:00:08;95407.19;;;8.28;95.83
10978;BME280;5542;48.272;10.794;2023-02-23T08:02:35;95402.28;;;8.50;94.49
10978;BME280;5542;48.272;10.794;2023-02-23T08:05:01;95408.34;;;8.32;95.38
10978;BME280;5542;48.272;10.794;2023-02-23T08:07:30;95407.25;;;8.21;96.42
10978;BME280;5542;48.272;10.794;2023-02-23T08:09:57;95410.75;;;8.33;95.53
10978;BME280;5542;48.272;10.794;2023-02-23T08:12:24;95410.72;;;8.21;96.29
10978;BME280;5542;48.272;10.794;2023-02-23T08:14:50;95409.72;;;8.34;95.94
10978;BME280;5542;48.272;10.794;2023-02-23T08:17:19;95410.34;;;8.36;95.68
10978;BME280;5542;48.272;10.794;2023-02-23T08:19:45;95417.00;;;8.32;96.53
10978;BME280;5542;48.272;10.794;2023-02-23T08:22:12;95406.72;;;8.49;94.60
10978;BME280;5542;48.272;10.794;2023-02-23T08:24:39;95415.91;;;8.40;95.27
10978;BME280;5542;48.272;10.794;2023-02-23T08:27:05;95413.38;;;8.52;94.79
10978;BME280;5542;48.272;10.794;2023-02-23T08:29:32;95407.25;;;8.39;95.44
10978;BME280;5542;48.272;10.794;2023-02-23T08:32:00;95406.84;;;8.42;95.74
10978;BME280;5542;48.272;10.794;2023-02-23T08:34:29;95411.03;;;8.43;95.70
10978;BME280;5542;48.272;10.794;2023-02-23T08:36:55;95407.09;;;8.53;95.83
10978;BME280;5542;48.272;10.794;2023-02-23T08:39:22;95408.00;;;8.46;95.68
10978;BME280;5542;48.272;10.794;2023-02-23T08:41:48;95401.94;;;8.46;96.97
10978;BME280;5542;48.272;10.794;2023-02-23T08:44:15;95405.72;;;8.50;97.27
10978;BME280;5542;48.272;10.794;2023-02-23T08:46:41;95408.81;;;8.59;97.40
10978;BME280;5542;48.272;10.794;2023-02-23T08:49:09;95401.44;;;8.67;97.52
10978;BME280;5542;48.272;10.794;2023-02-23T08:51:37;95402.47;;;8.78;96.91
10978;BME280;5542;48.272;10.794;2023-02-23T08:54:06;95406.97;;;8.89;96.42
10978;BME280;5542;48.272;10.794;2023-02-23T08:56:38;95409.13;;;8.92;95.89
10978;BME280;5542;48.272;10.794;2023-02-23T08:59:05;95409.06;;;9.11;94.37
10978;BME280;5542;48.272;10.794;2023-02-23T09:01:32;95404.47;;;9.06;94.75
10978;BME280;5542;48.272;10.794;2023-02-23T09:03:59;95409.84;;;9.11;94.45
10978;BME280;5542;48.272;10.794;2023-02-23T09:06:26;95407.81;;;9.25;92.92
10978;BME280;5542;48.272;10.794;2023-02-23T09:08:54;95407.47;;;9.10;93.28
10978;BME280;5542;48.272;10.794;2023-02-23T09:11:22;95405.97;;;9.14;93.22
10978;BME280;5542;48.272;10.794;2023-02-23T09:13:49;95405.19;;;9.13;92.69
10978;BME280;5542;48.272;10.794;2023-02-23T09:16:16;95410.44;;;9.13;92.47
10978;BME280;5542;48.272;10.794;2023-02-23T09:18:43;95416.28;;;9.27;91.78
10978;BME280;5542;48.272;10.794;2023-02-23T09:21:14;95412.38;;;9.18;91.66
10978;BME280;5542;48.272;10.794;2023-02-23T09:23:45;95412.72;;;9.10;92.91
10978;BME280;5542;48.272;10.794;2023-02-23T09:26:15;95409.31;;;9.21;92.44
10978;BME280;5542;48.272;10.794;2023-02-23T09:28:43;95416.59;;;9.19;91.66
10978;BME280;5542;48.272;10.794;2023-02-23T09:31:12;95413.19;;;9.18;93.00
10978;BME280;5542;48.272;10.794;2023-02-23T09:33:39;95416.16;;;9.22;92.51
10978;BME280;5542;48.272;10.794;2023-02-23T09:36:06;95414.31;;;9.22;92.36
10978;BME280;5542;48.272;10.794;2023-02-23T09:38:32;95413.75;;;9.09;93.03
10978;BME280;5542;48.272;10.794;2023-02-23T09:40:59;95421.84;;;9.07;93.12
10978;BME280;5542;48.272;10.794;2023-02-23T09:43:31;95424.78;;;9.11;93.91
10978;BME280;5542;48.272;10.794;2023-02-23T09:46:07;95424.81;;;9.22;92.20
10978;BME280;5542;48.272;10.794;2023-02-23T09:48:36;95420.94;;;9.13;92.60
10978;BME280;5542;48.272;10.794;2023-02-23T09:51:05;95427.44;;;9.34;92.03
10978;BME280;5542;48.272;10.794;2023-02-23T09:53:37;95428.34;;;9.28;92.45
10978;BME280;5542;48.272;10.794;2023-02-23T09:56:09;95427.34;;;9.41;91.49
10978;BME280;5542;48.272;10.794;2023-02-23T09:58:38;95427.69;;;9.33;91.75
10978;BME280;5542;48.272;10.794;2023-02-23T10:01:18;95429.97;;;9.41;90.76
10978;BME280;5542;48.272;10.794;2023-02-23T10:03:52;95432.47;;;9.36;92.07
10978;BME280;5542;48.272;10.794;2023-02-23T10:06:20;95428.16;;;9.41;92.26
10978;BME280;5542;48.272;10.794;2023-02-23T10:08:56;95441.25;;;9.53;91.45
10978;BME280;5542;48.272;10.794;2023-02-23T10:11:28;95436.00;;;9.53;90.64
10978;BME280;5542;48.272;10.794;2023-02-23T10:14:13;95434.53;;;9.57;90.41
10978;BME280;5542;48.272;10.794;2023-02-23T10:16:56;95432.16;;;9.56;91.12
10978;BME280;5542;48.272;10.794;2023-02-23T10:19:31;95433.28;;;9.71;89.67
10978;BME280;5542;48.272;10.794;2023-02-23T10:22:02;95429.38;;;9.86;86.92
10978;BME280;5542;48.272;10.794;2023-02-23T10:24:35;95431.66;;;9.94;86.83
10978;BME280;5542;48.272;10.794;2023-02-23T10:27:06;95422.19;;;9.81;87.70
10978;BME280;5542;48.272;10.794;2023-02-23T10:29:40;95428.72;;;9.79;87.23
10978;BME280;5542;48.272;10.794;2023-02-23T10:32:16;95425.59;;;9.82;87.50
10978;BME280;5542;48.272;10.794;2023-02-23T10:34:45;95423.88;;;9.99;85.77
10978;BME280;5542;48.272;10.794;2023-02-23T10:37:15;95423.16;;;10.27;83.68
10978;BME280;5542;48.272;10.794;2023-02-23T10:39:42;95429.31;;;10.21;84.21
10978;BME280;5542;48.272;10.794;2023-02-23T10:42:13;95422.44;;;10.20;84.14
10978;BME280;5542;48.272;10.794;2023-02-23T10:44:43;95422.72;;;10.07;85.96
10978;BME280;5542;48.272;10.794;2023-02-23T10:47:14;95425.22;;;10.01;85.01
10978;BME280;5542;48.272;10.794;2023-02-23T10:49:45;95425.38;;;10.07;84.00
10978;BME280;5542;48.272;10.794;2023-02-23T10:52:14;95423.53;;;10.07;84.23
10978;BME280;5542;48.272;10.794;2023-02-23T10:54:43;95425.47;;;10.12;84.54
10978;BME280;5542;48.272;10.794;2023-02-23T10:57:18;95423.94;;;10.16;84.28
10978;BME280;5542;48.272;10.794;2023-02-23T11:00:01;95425.38;;;10.47;82.83
10978;BME280;5542;48.272;10.794;2023-02-23T11:02:29;95421.94;;;10.46;82.86
10978;BME280;5542;48.272;10.794;2023-02-23T11:04:57;95411.97;;;10.48;81.40
10978;BME280;5542;48.272;10.794;2023-02-23T11:07:25;95422.41;;;10.43;82.35
10978;BME280;5542;48.272;10.794;2023-02-23T11:09:54;95414.84;;;10.47;82.63
10978;BME280;5542;48.272;10.794;2023-02-23T11:12:23;95408.75;;;10.58;82.21
10978;BME280;5542;48.272;10.794;2023-02-23T11:14:52;95408.00;;;10.74;80.30
10978;BME280;5542;48.272;10.794;2023-02-23T11:17:27;95401.44;;;10.77;79.52
10978;BME280;5542;48.272;10.794;2023-02-23T11:19:59;95407.28;;;10.96;78.97
10978;BME280;5542;48.272;10.794;2023-02-23T11:22:30;95409.72;;;10.97;79.02
10978;BME280;5542;48.272;10.794;2023-02-23T11:24:57;95404.53;;;11.02;77.56
10978;BME280;5542;48.272;10.794;2023-02-23T11:27:25;95399.47;;;11.01;77.36
10978;BME280;5542;48.272;10.794;2023-02-23T11:29:55;95396.56;;;10.97;77.19
10978;BME280;5542;48.272;10.794;2023-02-23T11:32:28;95396.28;;;10.82;77.28
10978;BME280;5542;48.272;10.794;2023-02-23T11:35:24;95387.09;;;10.68;78.61
10978;BME280;5542;48.272;10.794;2023-02-23T11:37:52;95391.75;;;10.94;77.00
10978;BME280;5542;48.272;10.794;2023-02-23T11:40:21;95389.28;;;10.88;77.32
10978;BME280;5542;48.272;10.794;2023-02-23T11:42:53;95378.91;;;10.81;77.71
10978;BME280;5542;48.272;10.794;2023-02-23T11:45:21;95381.00;;;11.13;76.81
10978;BME280;5542;48.272;10.794;2023-02-23T11:47:54;95374.69;;;11.31;74.71
10978;BME280;5542;48.272;10.794;2023-02-23T11:50:25;95369.50;;;11.36;74.32
10978;BME280;5542;48.272;10.794;2023-02-23T11:52:59;95366.75;;;11.47;73.45
10978;BME280;5542;48.272;10.794;2023-02-23T11:55:28;95369.66;;;11.46;73.00
10978;BME280;5542;48.272;10.794;2023-02-23T11:58:09;95369.66;;;11.46;74.21
10978;BME280;5542;48.272;10.794;2023-02-23T12:00:37;95368.81;;;11.62;71.96
10978;BME280;5542;48.272;10.794;2023-02-23T12:03:06;95365.25;;;11.51;71.92
10978;BME280;5542;48.272;10.794;2023-02-23T12:05:33;95363.31;;;11.47;71.64
10978;BME280;5542;48.272;10.794;2023-02-23T12:08:04;95355.88;;;11.61;70.92
10978;BME280;5542;48.272;10.794;2023-02-23T12:10:36;95366.00;;;11.69;70.06
10978;BME280;5542;48.272;10.794;2023-02-23T12:13:23;95365.03;;;11.75;70.95
10978;BME280;5542;48.272;10.794;2023-02-23T12:15:54;95354.56;;;11.80;70.02
10978;BME280;5542;48.272;10.794;2023-02-23T12:18:41;95353.44;;;11.93;69.19
10978;BME280;5542;48.272;10.794;2023-02-23T12:21:29;95351.91;;;11.97;68.97
10978;BME280;5542;48.272;10.794;2023-02-23T12:24:09;95345.28;;;11.94;68.70
10978;BME280;5542;48.272;10.794;2023-02-23T12:26:44;95348.63;;;11.90;69.21
10978;BME280;5542;48.272;10.794;2023-02-23T12:29:20;95341.69;;;12.05;68.63
10978;BME280;5542;48.272;10.794;2023-02-23T12:31:51;95339.63;;;12.08;69.07
10978;BME280;5542;48.272;10.794;2023-02-23T12:34:24;95336.75;;;12.09;67.53
10978;BME280;5542;48.272;10.794;2023-02-23T12:36:56;95338.84;;;12.07;68.11
10978;BME280;5542;48.272;10.794;2023-02-23T12:39:27;95337.53;;;12.10;68.40
10978;BME280;5542;48.272;10.794;2023-02-23T12:42:01;95334.94;;;12.15;68.78
10978;BME280;5542;48.272;10.794;2023-02-23T12:44:36;95337.00;;;12.08;69.07
10978;BME280;5542;48.272;10.794;2023-02-23T12:47:19;95328.72;;;12.21;68.97
10978;BME280;5542;48.272;10.794;2023-02-23T12:49:51;95326.31;;;12.19;69.54
10978;BME280;5542;48.272;10.794;2023-02-23T12:52:24;95326.66;;;12.28;70.28
10978;BME280;5542;48.272;10.794;2023-02-23T12:54:52;95324.69;;;12.40;68.62
10978;BME280;5542;48.272;10.794;2023-02-23T12:57:25;95328.69;;;12.48;67.32
10978;BME280;5542;48.272;10.794;2023-02-23T13:00:19;95323.25;;;12.54;67.54
10978;BME280;5542;48.272;10.794;2023-02-23T13:05:50;95316.16;;;12.60;66.50
10978;BME280;5542;48.272;10.794;2023-02-23T13:08:28;95322.53;;;12.64;66.96
10978;BME280;5542;48.272;10.794;2023-02-23T13:11:05;95328.13;;;12.68;66.79
10978;BME280;5542;48.272;10.794;2023-02-23T13:13:39;95322.34;;;12.76;65.63
10978;BME280;5542;48.272;10.794;2023-02-23T13:16:10;95324.00;;;12.82;66.06
10978;BME280;5542;48.272;10.794;2023-02-23T13:18:44;95319.97;;;12.74;64.35
10978;BME280;5542;48.272;10.794;2023-02-23T13:21:20;95328.03;;;12.63;65.44
10978;BME280;5542;48.272;10.794;2023-02-23T13:23:55;95321.59;;;12.80;64.44
10978;BME280;5542;48.272;10.794;2023-02-23T13:26:31;95319.22;;;12.79;64.38
10978;BME280;5542;48.272;10.794;2023-02-23T13:29:01;95323.75;;;12.84;63.52
10978;BME280;5542;48.272;10.794;2023-02-23T13:31:31;95322.63;;;12.74;63.25
10978;BME280;5542;48.272;10.794;2023-02-23T13:34:00;95322.97;;;12.56;64.07
10978;BME280;5542;48.272;10.794;2023-02-23T13:36:31;95312.13;;;12.52;64.79
10978;BME280;5542;48.272;10.794;2023-02-23T13:39:18;95317.41;;;12.52;65.37